createdAt,value
2019-03-16T00:01:20.795Z,11.20
2019-03-16T00:04:09.719Z,7.57
2019-03-16T00:06:58.503Z,7.40
2019-03-16T00:09:47.091Z,6.10
2019-03-16T00:12:36.023Z,7.80
2019-03-16T00:15:24.727Z,7.20
2019-03-16T00:18:13.931Z,6.60
2019-03-16T00:21:02.994Z,6.63
2019-03-16T00:23:51.582Z,6.47
2019-03-16T00:26:40.465Z,5.63
2019-03-16T00:29:29.630Z,5.20
2019-03-16T00:32:19.208Z,5.03
2019-03-16T00:35:08.318Z,5.77
2019-03-16T00:37:57.240Z,5.20
2019-03-16T00:40:46.721Z,4.60
2019-03-16T00:43:16.892Z,4.17
2019-03-16T00:45:47.006Z,5.70
2019-03-16T00:48:36.408Z,4.90
2019-03-16T00:51:25.591Z,4.40
2019-03-16T00:54:14.503Z,3.53
2019-03-16T00:57:04.478Z,3.33
2019-03-16T00:59:54.041Z,3.00
2019-03-16T01:02:42.687Z,3.40
2019-03-16T01:05:31.340Z,3.53
2019-03-16T01:08:19.812Z,4.13
2019-03-16T01:11:08.791Z,4.00
2019-03-16T01:13:57.562Z,3.80
2019-03-16T01:16:46.429Z,3.70
2019-03-16T01:19:35.399Z,3.47
2019-03-16T01:22:24.639Z,2.97
2019-03-16T01:25:10.229Z,3.40
2019-03-16T01:27:58.705Z,3.17
2019-03-16T01:30:47.878Z,4.20
2019-03-16T01:33:37.008Z,3.60
2019-03-16T01:36:26.613Z,3.37
2019-03-16T01:39:15.472Z,4.00
2019-03-16T01:42:05.046Z,3.20
2019-03-16T01:44:54.135Z,4.20
2019-03-16T01:47:42.946Z,3.60
2019-03-16T01:50:32.249Z,4.30
2019-03-16T01:53:21.234Z,3.80
2019-03-16T01:56:10.335Z,3.97
2019-03-16T01:58:59.794Z,3.80
2019-03-16T02:01:49.502Z,4.10
2019-03-16T02:04:39.000Z,3.87
2019-03-16T02:07:28.384Z,3.30
2019-03-16T02:10:17.026Z,3.60
2019-03-16T02:13:06.238Z,3.77
2019-03-16T02:15:55.453Z,3.50
2019-03-16T02:18:45.436Z,3.83
2019-03-16T02:21:34.775Z,3.30
2019-03-16T02:24:23.792Z,3.07
2019-03-16T02:27:12.592Z,3.23
2019-03-16T02:30:01.478Z,4.40
2019-03-16T02:32:50.712Z,3.60
2019-03-16T02:35:20.608Z,3.50
2019-03-16T02:38:09.743Z,3.20
2019-03-16T02:40:58.809Z,3.63
2019-03-16T02:43:48.065Z,3.77
2019-03-16T02:46:37.312Z,3.70
2019-03-16T02:49:26.264Z,3.33
2019-03-16T02:52:15.079Z,3.60
2019-03-16T02:55:03.788Z,3.57
2019-03-16T02:57:53.053Z,3.30
2019-03-16T03:00:41.807Z,3.77
2019-03-16T03:03:30.831Z,4.73
2019-03-16T03:06:19.528Z,4.10
2019-03-16T03:09:09.792Z,4.70
2019-03-16T03:11:59.246Z,4.10
2019-03-16T03:14:48.639Z,4.20
2019-03-16T03:17:37.243Z,4.43
2019-03-16T03:20:25.912Z,5.10
2019-03-16T03:23:05.406Z,4.60
2019-03-16T03:25:54.060Z,5.10
2019-03-16T03:28:42.667Z,6.10
2019-03-16T03:31:31.833Z,14.60
2019-03-16T03:34:20.577Z,18.33
2019-03-16T03:37:09.529Z,15.10
2019-03-16T03:39:58.447Z,15.77
2019-03-16T03:42:46.683Z,12.03
2019-03-16T03:45:35.047Z,8.03
2019-03-16T03:48:23.895Z,7.63
2019-03-16T03:51:12.888Z,7.33
2019-03-16T03:54:01.750Z,6.70
2019-03-16T03:56:50.704Z,7.53
2019-03-16T03:59:40.295Z,7.40
2019-03-16T04:02:28.999Z,7.97
2019-03-16T04:05:18.274Z,7.90
2019-03-16T04:08:07.223Z,8.50
2019-03-16T04:10:56.158Z,8.43
2019-03-16T04:13:45.445Z,9.80
2019-03-16T04:16:34.391Z,10.17
2019-03-16T04:19:22.975Z,10.47
2019-03-16T04:22:11.977Z,10.67
2019-03-16T04:25:00.574Z,9.73
2019-03-16T04:27:49.156Z,14.07
2019-03-16T04:30:38.030Z,17.60
2019-03-16T04:33:27.288Z,21.67
2019-03-16T04:36:16.857Z,26.83
2019-03-16T04:39:07.005Z,29.57
2019-03-16T04:41:55.953Z,29.57
2019-03-16T04:44:44.968Z,25.70
2019-03-16T04:47:34.016Z,24.07
2019-03-16T04:50:22.772Z,19.53
2019-03-16T04:53:11.608Z,18.50
2019-03-16T04:56:00.705Z,15.77
2019-03-16T04:58:51.673Z,16.17
2019-03-16T05:01:40.578Z,12.73
2019-03-16T05:04:41.679Z,13.67
2019-03-16T05:07:15.091Z,13.60
2019-03-16T05:10:07.047Z,12.00
2019-03-16T05:12:54.637Z,12.20
2019-03-16T05:15:43.628Z,12.57
2019-03-16T05:18:32.925Z,13.57
2019-03-16T05:21:22.085Z,11.27
2019-03-16T05:24:10.502Z,11.37
2019-03-16T05:26:59.077Z,10.93
2019-03-16T05:29:47.598Z,9.70
2019-03-16T05:32:35.892Z,9.93
2019-03-16T05:35:24.509Z,8.70
2019-03-16T05:38:13.812Z,10.43
2019-03-16T05:41:02.538Z,9.57
2019-03-16T05:43:51.757Z,9.33
2019-03-16T05:46:41.141Z,9.53
2019-03-16T05:49:29.867Z,10.73
2019-03-16T05:52:18.512Z,9.43
2019-03-16T05:55:07.750Z,11.90
2019-03-16T05:57:56.810Z,15.07
2019-03-16T06:00:45.745Z,22.30
2019-03-16T06:03:34.344Z,16.93
2019-03-16T06:06:23.628Z,14.80
2019-03-16T06:09:14.389Z,17.73
2019-03-16T06:12:02.952Z,19.53
2019-03-16T06:14:52.100Z,22.20
2019-03-16T06:17:41.562Z,20.87
2019-03-16T06:20:30.370Z,23.53
2019-03-16T06:23:19.293Z,25.27
2019-03-16T06:26:08.282Z,25.30
2019-03-16T06:28:56.814Z,17.00
2019-03-16T06:31:45.809Z,13.00
2019-03-16T06:34:34.520Z,11.37
2019-03-16T06:37:17.877Z,10.20
2019-03-16T06:39:48.068Z,9.27
2019-03-16T06:42:18.216Z,9.47
2019-03-16T06:44:48.271Z,9.27
2019-03-16T06:47:18.368Z,10.00
2019-03-16T06:49:48.567Z,9.80
2019-03-16T06:52:18.573Z,10.80
2019-03-16T06:54:49.058Z,10.10
2019-03-16T06:57:19.172Z,11.43
2019-03-16T06:59:49.284Z,12.77
2019-03-16T07:02:19.325Z,10.80
2019-03-16T07:05:09.842Z,11.57
2019-03-16T07:07:58.638Z,12.30
2019-03-16T07:10:47.616Z,11.13
2019-03-16T07:13:37.196Z,11.43
2019-03-16T07:16:26.231Z,11.07
2019-03-16T07:19:15.369Z,10.90
2019-03-16T07:22:03.761Z,10.40
2019-03-16T07:24:35.580Z,10.80
2019-03-16T07:27:26.383Z,11.97
2019-03-16T07:30:15.737Z,8.20
2019-03-16T07:33:04.972Z,6.80
2019-03-16T07:35:54.032Z,5.37
2019-03-16T07:38:43.457Z,4.37
2019-03-16T07:41:33.401Z,4.60
2019-03-16T07:44:22.808Z,4.53
2019-03-16T07:47:11.836Z,3.87
2019-03-16T07:49:43.816Z,3.40
2019-03-16T07:52:14.194Z,2.90
2019-03-16T07:54:44.350Z,2.90
2019-03-16T07:57:14.441Z,2.80
2019-03-16T08:00:03.434Z,2.57
2019-03-16T08:02:52.276Z,2.37
2019-03-16T08:05:41.092Z,2.27
2019-03-16T08:08:30.526Z,1.73
2019-03-16T08:11:19.082Z,1.87
2019-03-16T08:14:08.346Z,2.03
2019-03-16T08:16:57.078Z,2.10
2019-03-16T08:19:45.942Z,1.90
2019-03-16T08:22:35.607Z,2.60
2019-03-16T08:25:25.353Z,1.83
2019-03-16T08:28:14.310Z,2.07
2019-03-16T08:31:03.425Z,2.17
2019-03-16T08:33:52.352Z,2.10
2019-03-16T08:36:41.110Z,2.80
2019-03-16T08:39:30.427Z,2.30
2019-03-16T08:42:19.797Z,2.30
2019-03-16T08:45:09.258Z,2.07
2019-03-16T08:47:58.931Z,2.23
2019-03-16T08:50:47.901Z,1.90
2019-03-16T08:53:37.669Z,2.67
2019-03-16T08:56:27.195Z,2.20
2019-03-16T08:59:16.650Z,2.47
2019-03-16T09:02:05.911Z,3.07
2019-03-16T09:04:55.456Z,2.80
2019-03-16T09:07:44.813Z,2.80
2019-03-16T09:10:33.872Z,2.80
2019-03-16T09:13:23.371Z,3.10
2019-03-16T09:16:12.512Z,3.07
2019-03-16T09:19:01.899Z,3.10
2019-03-16T09:21:50.760Z,3.30
2019-03-16T09:24:40.546Z,3.17
2019-03-16T09:27:31.441Z,3.37
2019-03-16T09:30:21.728Z,4.40
2019-03-16T09:33:11.401Z,4.20
2019-03-16T09:36:00.353Z,4.40
2019-03-16T09:38:49.800Z,4.77
2019-03-16T09:41:39.437Z,4.70
2019-03-16T09:44:28.487Z,3.93
2019-03-16T09:47:17.329Z,4.10
2019-03-16T09:50:07.513Z,4.03
2019-03-16T09:52:38.474Z,4.20
2019-03-16T09:55:27.821Z,3.40
2019-03-16T09:58:16.732Z,3.03
2019-03-16T10:01:05.528Z,2.63
2019-03-16T10:03:55.229Z,2.80
2019-03-16T10:06:44.291Z,2.57
2019-03-16T10:09:33.084Z,2.20
2019-03-16T10:12:21.778Z,2.37
2019-03-16T10:15:11.231Z,2.13
2019-03-16T10:18:00.244Z,1.93
2019-03-16T10:20:49.552Z,2.33
2019-03-16T10:23:38.691Z,2.00
2019-03-16T10:26:27.255Z,2.20
2019-03-16T10:29:16.503Z,2.00
2019-03-16T10:32:05.790Z,2.07
2019-03-16T10:34:55.309Z,1.93
2019-03-16T10:37:44.214Z,2.30
2019-03-16T10:40:33.933Z,2.23
2019-03-16T10:43:23.089Z,2.20
2019-03-16T10:46:12.290Z,2.50
2019-03-16T10:49:01.781Z,2.10
2019-03-16T10:51:51.051Z,2.40
2019-03-16T10:54:42.814Z,3.27
2019-03-16T10:57:30.885Z,2.73
2019-03-16T11:00:20.025Z,2.67
2019-03-16T11:03:09.705Z,2.50
2019-03-16T11:05:59.245Z,2.33
2019-03-16T11:08:48.723Z,2.60
2019-03-16T11:11:37.276Z,2.80
2019-03-16T11:14:26.867Z,2.00
2019-03-16T11:17:15.982Z,2.30
2019-03-16T11:20:05.652Z,2.53
2019-03-16T11:22:54.921Z,2.90
2019-03-16T11:25:43.668Z,2.47
2019-03-16T11:28:32.993Z,2.47
2019-03-16T11:31:22.068Z,2.53
2019-03-16T11:33:52.319Z,2.67
2019-03-16T11:36:41.376Z,2.30
2019-03-16T11:39:32.264Z,2.60
2019-03-16T11:42:20.488Z,2.33
2019-03-16T11:45:10.229Z,2.73
2019-03-16T11:47:59.043Z,2.73
2019-03-16T11:50:48.972Z,2.40
2019-03-16T11:53:37.577Z,2.43
2019-03-16T11:56:26.632Z,2.90
2019-03-16T11:59:21.703Z,2.20
2019-03-16T12:02:06.636Z,2.20
2019-03-16T12:04:55.906Z,2.40
2019-03-16T12:07:45.334Z,2.60
2019-03-16T12:10:34.440Z,2.47
2019-03-16T12:13:23.430Z,2.67
2019-03-16T12:15:53.947Z,2.30
2019-03-16T12:18:43.251Z,2.50
2019-03-16T12:21:32.544Z,2.37
2019-03-16T12:24:21.634Z,2.67
2019-03-16T12:27:11.133Z,2.50
2019-03-16T12:29:59.852Z,2.30
2019-03-16T12:32:49.251Z,2.40
2019-03-16T12:35:38.352Z,2.30
2019-03-16T12:38:27.647Z,2.60
2019-03-16T12:41:16.877Z,2.27
2019-03-16T12:44:06.465Z,2.50
2019-03-16T12:46:55.711Z,2.50
2019-03-16T12:49:44.831Z,3.10
2019-03-16T12:52:33.836Z,2.80
2019-03-16T12:55:23.094Z,2.73
2019-03-16T12:58:12.139Z,2.47
2019-03-16T13:01:01.426Z,2.47
2019-03-16T13:03:50.573Z,2.33
2019-03-16T13:06:39.977Z,2.60
2019-03-16T13:09:29.209Z,3.17
2019-03-16T13:12:18.508Z,2.63
2019-03-16T13:15:07.641Z,2.40
2019-03-16T13:17:56.945Z,2.20
2019-03-16T13:20:46.000Z,2.30
2019-03-16T13:23:35.145Z,2.37
2019-03-16T13:26:23.862Z,3.20
2019-03-16T13:29:13.169Z,2.30
2019-03-16T13:32:03.710Z,2.47
2019-03-16T13:34:52.936Z,2.40
2019-03-16T13:37:41.825Z,2.67
2019-03-16T13:40:30.748Z,2.20
2019-03-16T13:43:20.322Z,2.43
2019-03-16T13:46:09.636Z,2.47
2019-03-16T13:48:58.424Z,2.60
2019-03-16T13:51:47.593Z,2.30
2019-03-16T13:54:36.603Z,2.63
2019-03-16T13:57:25.473Z,2.37
2019-03-16T14:00:15.464Z,2.50
2019-03-16T14:03:04.658Z,2.50
2019-03-16T14:05:53.614Z,2.30
2019-03-16T14:08:43.359Z,2.60
2019-03-16T14:11:32.561Z,2.50
2019-03-16T14:14:09.822Z,2.50
2019-03-16T14:16:59.688Z,2.40
2019-03-16T14:19:48.700Z,2.60
2019-03-16T14:22:39.080Z,2.60
2019-03-16T14:25:27.998Z,2.80
2019-03-16T14:28:16.934Z,2.73
2019-03-16T14:31:05.951Z,2.50
2019-03-16T14:33:55.478Z,2.50
2019-03-16T14:36:44.484Z,2.50
2019-03-16T14:39:33.775Z,2.80
2019-03-16T14:42:24.260Z,2.70
2019-03-16T14:45:13.886Z,2.33
2019-03-16T14:48:03.869Z,2.80
2019-03-16T14:50:53.017Z,3.50
2019-03-16T14:53:42.254Z,2.23
2019-03-16T14:56:30.948Z,2.80
2019-03-16T14:59:20.165Z,2.10
2019-03-16T15:02:09.410Z,2.40
2019-03-16T15:04:58.724Z,3.07
2019-03-16T15:07:29.313Z,3.17
2019-03-16T15:10:17.878Z,2.83
2019-03-16T15:13:07.461Z,2.23
2019-03-16T15:15:56.910Z,2.43
2019-03-16T15:18:46.172Z,2.90
2019-03-16T15:21:35.864Z,2.40
2019-03-16T15:24:24.945Z,1.90
2019-03-16T15:27:15.845Z,2.70
2019-03-16T15:30:05.247Z,2.37
2019-03-16T15:32:54.101Z,2.40
2019-03-16T15:35:43.290Z,2.47
2019-03-16T15:38:32.829Z,2.70
2019-03-16T15:41:22.318Z,2.30
2019-03-16T15:44:11.539Z,2.50
2019-03-16T15:47:00.810Z,2.80
2019-03-16T15:49:50.041Z,2.90
2019-03-16T15:52:38.834Z,2.50
2019-03-16T15:55:27.765Z,3.10
2019-03-16T15:58:17.048Z,2.80
2019-03-16T16:01:05.918Z,2.80
2019-03-16T16:03:54.777Z,2.87
2019-03-16T16:06:44.202Z,3.50
2019-03-16T16:09:14.313Z,3.70
2019-03-16T16:12:03.238Z,3.80
2019-03-16T16:14:53.501Z,3.00
2019-03-16T16:17:42.896Z,3.07
2019-03-16T16:20:28.919Z,2.63
2019-03-16T16:23:17.991Z,2.90
2019-03-16T16:26:06.469Z,3.33
2019-03-16T16:28:55.577Z,3.43
2019-03-16T16:31:45.138Z,3.50
2019-03-16T16:34:35.737Z,3.13
2019-03-16T16:37:21.133Z,3.80
2019-03-16T16:40:11.685Z,3.63
2019-03-16T16:43:00.298Z,3.13
2019-03-16T16:45:49.652Z,3.37
2019-03-16T16:48:38.654Z,3.47
2019-03-16T16:51:27.908Z,3.60
2019-03-16T16:54:16.634Z,3.40
2019-03-16T16:57:06.646Z,3.10
2019-03-16T16:59:58.323Z,3.47
2019-03-16T17:02:46.274Z,2.97
2019-03-16T17:05:35.328Z,3.17
2019-03-16T17:08:23.883Z,3.63
2019-03-16T17:11:13.268Z,3.17
2019-03-16T17:14:02.045Z,2.90
2019-03-16T17:16:51.640Z,3.10
2019-03-16T17:19:40.402Z,2.90
2019-03-16T17:22:29.423Z,3.17
2019-03-16T17:25:00.050Z,3.30
2019-03-16T17:27:48.742Z,2.90
2019-03-16T17:30:37.841Z,3.30
2019-03-16T17:33:26.750Z,2.87
2019-03-16T17:36:16.235Z,3.10
2019-03-16T17:39:07.340Z,4.00
2019-03-16T17:41:56.521Z,3.70
2019-03-16T17:44:45.552Z,3.53
2019-03-16T17:47:34.349Z,3.30
2019-03-16T17:50:22.886Z,3.13
2019-03-16T17:53:11.768Z,3.20
2019-03-16T17:56:00.729Z,3.00
2019-03-16T17:58:50.184Z,3.40
2019-03-16T18:01:39.121Z,3.30
2019-03-16T18:04:28.301Z,2.97
2019-03-16T18:07:17.299Z,3.10
2019-03-16T18:10:06.703Z,3.40
2019-03-16T18:12:36.926Z,3.20
2019-03-16T18:15:26.613Z,3.67
2019-03-16T18:18:15.821Z,3.70
2019-03-16T18:21:05.294Z,3.43
2019-03-16T18:23:54.425Z,3.80
2019-03-16T18:26:43.957Z,4.70
2019-03-16T18:29:14.098Z,3.60
2019-03-16T18:32:08.132Z,3.80
2019-03-16T18:34:53.234Z,4.93
2019-03-16T18:37:42.024Z,4.00
2019-03-16T18:40:31.369Z,5.20
2019-03-16T18:43:20.758Z,4.90
2019-03-16T18:46:10.394Z,5.57
2019-03-16T18:48:59.352Z,5.00
2019-03-16T18:51:48.159Z,5.17
2019-03-16T18:54:37.045Z,4.50
2019-03-16T18:57:26.836Z,5.00
2019-03-16T19:00:16.034Z,4.83
2019-03-16T19:03:05.108Z,4.80
2019-03-16T19:05:54.177Z,4.70
2019-03-16T19:08:42.788Z,5.10
2019-03-16T19:11:32.133Z,4.90
2019-03-16T19:14:21.718Z,4.20
2019-03-16T19:17:11.982Z,4.47
2019-03-16T19:20:01.284Z,4.17
2019-03-16T19:22:50.419Z,4.57
2019-03-16T19:25:39.351Z,4.30
2019-03-16T19:28:28.575Z,4.60
2019-03-16T19:31:18.162Z,4.63
2019-03-16T19:34:07.448Z,4.63
2019-03-16T19:36:56.858Z,4.90
2019-03-16T19:39:46.413Z,4.60
2019-03-16T19:42:35.937Z,4.77
2019-03-16T19:45:25.614Z,5.00
2019-03-16T19:48:14.730Z,4.50
2019-03-16T19:51:04.487Z,4.00
2019-03-16T19:53:53.539Z,5.13
2019-03-16T19:56:42.325Z,4.50
2019-03-16T19:59:31.525Z,5.17
2019-03-16T20:02:20.904Z,5.10
2019-03-16T20:05:10.197Z,4.67
2019-03-16T20:07:59.759Z,5.17
2019-03-16T20:10:48.926Z,4.97
2019-03-16T20:13:38.330Z,4.40
2019-03-16T20:16:27.455Z,4.67
2019-03-16T20:19:17.240Z,4.67
2019-03-16T20:22:06.463Z,4.97
2019-03-16T20:24:56.122Z,4.43
2019-03-16T20:27:45.262Z,5.10
2019-03-16T20:30:34.478Z,4.63
2019-03-16T20:33:23.715Z,4.83
2019-03-16T20:36:13.260Z,5.23
2019-03-16T20:39:02.425Z,4.80
2019-03-16T20:41:52.137Z,4.93
2019-03-16T20:44:41.757Z,4.37
2019-03-16T20:47:31.627Z,4.70
2019-03-16T20:50:02.312Z,5.07
2019-03-16T20:52:51.085Z,4.90
2019-03-16T20:55:42.333Z,4.90
2019-03-16T20:58:31.860Z,5.27
2019-03-16T21:01:21.294Z,4.90
2019-03-16T21:04:09.885Z,4.00
2019-03-16T21:06:59.054Z,4.77
2019-03-16T21:09:48.389Z,4.80
2019-03-16T21:12:37.878Z,4.33
2019-03-16T21:15:26.707Z,4.53
2019-03-16T21:18:16.475Z,5.50
2019-03-16T21:21:06.570Z,4.37
2019-03-16T21:23:55.456Z,4.37
2019-03-16T21:26:52.599Z,4.33
2019-03-16T21:29:35.203Z,4.93
2019-03-16T21:32:24.645Z,4.53
2019-03-16T21:35:14.094Z,4.93
2019-03-16T21:38:03.762Z,4.57
2019-03-16T21:40:53.286Z,4.20
2019-03-16T21:43:42.192Z,4.33
2019-03-16T21:46:30.712Z,4.70
2019-03-16T21:49:20.915Z,4.17
2019-03-16T21:52:10.298Z,4.77
2019-03-16T21:54:59.312Z,4.47
2019-03-16T21:57:48.851Z,4.90
2019-03-16T22:00:38.133Z,4.40
2019-03-16T22:03:27.469Z,4.50
2019-03-16T22:06:16.516Z,4.10
2019-03-16T22:09:07.785Z,4.30
2019-03-16T22:11:56.545Z,4.07
2019-03-16T22:14:45.832Z,3.93
2019-03-16T22:17:34.428Z,4.10
2019-03-16T22:20:24.026Z,3.50
2019-03-16T22:23:13.514Z,3.20
2019-03-16T22:26:02.998Z,3.93
2019-03-16T22:28:52.811Z,3.60
2019-03-16T22:31:41.863Z,3.50
2019-03-16T22:34:31.449Z,4.13
2019-03-16T22:37:20.115Z,3.53
2019-03-16T22:39:50.858Z,3.70
2019-03-16T22:42:40.334Z,3.50
2019-03-16T22:45:29.150Z,3.40
2019-03-16T22:48:20.559Z,3.50
2019-03-16T22:51:09.065Z,3.40
2019-03-16T22:53:58.415Z,3.03
2019-03-16T22:56:47.532Z,3.47
2019-03-16T22:59:36.421Z,3.90
2019-03-16T23:02:25.906Z,3.80
2019-03-16T23:05:15.084Z,3.17
2019-03-16T23:08:03.927Z,3.43
2019-03-16T23:10:52.549Z,3.13
2019-03-16T23:13:41.470Z,3.13
2019-03-16T23:16:30.614Z,3.30
2019-03-16T23:19:19.377Z,3.40
2019-03-16T23:22:08.689Z,3.13
2019-03-16T23:24:57.797Z,3.27
2019-03-16T23:27:47.302Z,3.27
2019-03-16T23:30:36.649Z,3.93
2019-03-16T23:33:26.468Z,4.13
2019-03-16T23:36:15.471Z,3.73
2019-03-16T23:39:05.196Z,3.43
2019-03-16T23:41:54.541Z,4.30
2019-03-16T23:44:43.466Z,3.83
2019-03-16T23:47:32.380Z,3.90
2019-03-16T23:50:21.427Z,3.90
2019-03-16T23:53:10.537Z,3.67
2019-03-16T23:55:59.679Z,3.97
2019-03-16T23:58:48.648Z,3.80
